NCAR-RAP Real-Time Weather Data

Output produced by METARs form (23 February 2020  01:32 UTC)
found at http://weather.rap.ucar.edu/surface/
 
KALB 230051Z 00000KT 10SM FEW180 FEW250 M01/M07 A3018 RMK AO2 SLP223 T10111072
KALB 222351Z 00000KT 10SM FEW180 FEW250 01/M07 A3017 RMK AO2 SLP220 T00111067 10067 20011 51007
KALB 222251Z 31008KT 10SM FEW250 03/M07 A3016 RMK AO2 SLP215 T00331072
KALB 222151Z 32011KT 10SM FEW250 04/M07 A3016 RMK AO2 SLP216 T00441072
KALB 222051Z 32009KT 10SM FEW250 06/M08 A3015 RMK AO2 SLP211 T00611078 56008
KALB 221951Z 28009G15KT 10SM FEW040 FEW250 06/M09 A3015 RMK AO2 SLP211 T00611089
KALB 221851Z 26008KT 10SM FEW035 SCT250 06/M09 A3015 RMK AO2 SLP214 T00611094
KALB 221751Z 26012G19KT 10SM FEW035 FEW250 05/M10 A3017 RMK AO2 SLP220 T00501100 10056 21078 58019
KALB 221651Z 29014G19KT 10SM FEW035 FEW250 04/M09 A3020 RMK AO2 SLP228 T00441094
KALB 221551Z 28010G19KT 10SM FEW030 FEW250 04/M10 A3022 RMK AO2 SLP235 T00391100
KALB 221451Z 27011G18KT 10SM SCT030 SCT250 02/M11 A3023 RMK AO2 SLP239 T00221111 50002
KALB 221351Z 17003KT 10SM FEW040 FEW200 SCT250 00/M12 A3023 RMK AO2 SLP241 T00001122
KALB 221251Z 00000KT 10SM FEW040 FEW250 M05/M11 A3023 RMK AO2 SLP240 T10501106
KALB 221151Z 00000KT 10SM FEW250 M08/M13 A3022 RMK AO2 SLP239 T10781128 11033 21089 51006
KALB 221051Z 00000KT 10SM FEW250 M08/M13 A3022 RMK AO2 SLP238 T10781133
KALB 220951Z 00000KT 10SM CLR M06/M14 A3021 RMK AO2 SLP236 T10611139
KALB 220851Z 20004KT 10SM CLR M06/M14 A3021 RMK AO2 SLP232 T10561139 56008
KALB 220751Z 16003KT 10SM CLR M04/M14 A3021 RMK AO2 SLP233 T10391144
KALB 220651Z 17007KT 10SM CLR M04/M14 A3021 RMK AO2 SLP232 T10391139
KALB 220551Z 18007KT 10SM CLR M03/M14 A3023 RMK AO2 SLP240 T10331139 11011 21044 56017
KALB 220451Z 17006KT 10SM CLR M03/M14 A3024 RMK AO2 SLP244 T10331144 400061117
KALB 220351Z 18005KT 10SM CLR M03/M14 A3026 RMK AO2 SLP251 T10331144
KALB 220251Z 17005KT 10SM CLR M02/M14 A3028 RMK AO2 SLP258 T10221139 58021
KALB 220151Z 19005KT 10SM CLR M04/M13 A3031 RMK AO2 SLP268 T10441128
KALB 220051Z 18004KT 10SM CLR M02/M13 A3033 RMK AO2 SLP274 T10171128
KALB 212351Z 20004KT 10SM CLR M02/M13 A3034 RMK AO2 SLP280 T10171133 10006 21022 55010
KALB 212251Z 24003KT 10SM CLR M01/M14 A3034 RMK AO2 SLP278 T10111139
KALB 212151Z 25005KT 10SM CLR 00/M14 A3035 RMK AO2 SLP281 T00001139
KALB 212051Z 28007KT 10SM CLR 01/M13 A3037 RMK AO2 SLP289 T00061133 56025
KALB 211951Z 27008KT 10SM CLR 00/M13 A3039 RMK AO2 SLP297 T00001133
KALB 211851Z 27010G15KT 10SM CLR M01/M14 A3042 RMK AO2 SLP305 T10061139
KALB 211751Z 31006KT 10SM CLR M02/M16 A3045 RMK AO2 SLP314 T10171156 11017 21117 58021
KALB 211651Z VRB03KT 10SM CLR M03/M18 A3049 RMK AO2 SLP328 T10281178
KALB 211551Z VRB04KT 10SM CLR M04/M19 A3050 RMK AO2 SLP334 T10441189
KALB 211451Z 00000KT 10SM CLR M06/M18 A3051 RMK AO2 SLP336 T10611183 50005
KALB 211351Z 34004KT 10SM CLR M07/M16 A3052 RMK AO2 SLP338 T10721161
KALB 211251Z 32004KT 10SM CLR M09/M16 A3051 RMK AO2 SLP337 T10891156
KALB 211151Z 31005KT 10SM CLR M12/M16 A3049 RMK AO2 SLP332 T11171156 11072 21117 53008
KALB 211051Z 33006KT 10SM CLR M11/M16 A3048 RMK AO2 SLP328 T11111156
KALB 210951Z 32003KT 10SM CLR M10/M15 A3048 RMK AO2 SLP326 T11001150
KALB 210851Z 07003KT 10SM CLR M09/M14 A3047 RMK AO2 SLP322 T10941144 55000
KALB 210751Z 00000KT 10SM FEW045 M08/M14 A3047 RMK AO2 SLP322 T10831139
KALB 210651Z 32005KT 10SM FEW045 M08/M14 A3047 RMK AO2 SLP322 T10831144
KALB 210551Z 32006KT 10SM FEW044 M08/M14 A3047 RMK AO2 SLP323 T10781144 11050 21078 56006
KALB 210451Z 31007KT 10SM BKN044 M06/M15 A3047 RMK AO2 SLP324 T10611150 410061072
KALB 210351Z 32008KT 10SM BKN048 M06/M15 A3048 RMK AO2 SLP326 T10611150
KALB 210251Z 30006KT 10SM BKN050 M06/M16 A3049 RMK AO2 SLP328 T10561156 53009
KALB 210151Z 31007G18KT 10SM FEW050 M06/M17 A3047 RMK AO2 SLP324 T10561167